createdAt,value
2022-09-23T00:01:43.966Z,98.09
2022-09-23T00:04:10.949Z,98.29
2022-09-23T00:06:37.518Z,98.12
2022-09-23T00:09:04.130Z,97.96
2022-09-23T00:11:30.716Z,98.04
2022-09-23T00:13:59.221Z,97.95
2022-09-23T00:16:28.470Z,98.01
2022-09-23T00:18:55.361Z,97.82
2022-09-23T00:21:22.375Z,97.78
2022-09-23T00:23:49.418Z,97.64
2022-09-23T00:26:19.043Z,97.47
2022-09-23T00:28:45.994Z,97.50
2022-09-23T00:31:17.339Z,97.53
2022-09-23T00:33:44.205Z,97.70
2022-09-23T00:36:12.671Z,97.70
2022-09-23T00:38:39.276Z,97.60
2022-09-23T00:41:17.302Z,97.29
2022-09-23T00:43:48.560Z,97.12
2022-09-23T00:46:19.953Z,96.93
2022-09-23T00:48:48.461Z,96.84
2022-09-23T00:51:18.258Z,96.90
2022-09-23T00:53:47.107Z,96.85
2022-09-23T00:56:14.025Z,96.57
2022-09-23T00:58:42.443Z,96.79
2022-09-23T01:01:09.154Z,96.46
2022-09-23T01:03:35.791Z,96.51
2022-09-23T01:06:02.322Z,96.39
2022-09-23T01:08:29.053Z,96.54
2022-09-23T01:10:55.585Z,96.54
2022-09-23T01:13:48.134Z,96.21
2022-09-23T01:16:14.712Z,96.26
2022-09-23T01:18:47.037Z,96.09
2022-09-23T01:21:27.995Z,96.25
2022-09-23T01:24:13.176Z,96.28
2022-09-23T01:26:48.577Z,96.23
2022-09-23T01:29:50.793Z,95.73
2022-09-23T01:32:20.197Z,95.70
2022-09-23T01:35:04.117Z,96.04
2022-09-23T01:37:39.757Z,95.97
2022-09-23T01:40:22.674Z,96.45
2022-09-23T01:42:58.315Z,96.07
2022-09-23T01:45:36.200Z,96.13
2022-09-23T01:48:10.512Z,96.32
2022-09-23T01:50:57.892Z,96.15
2022-09-23T01:53:28.389Z,96.09
2022-09-23T01:55:57.914Z,96.44
2022-09-23T01:58:27.096Z,96.28
2022-09-23T02:01:05.106Z,96.15
2022-09-23T02:03:45.205Z,96.04
2022-09-23T02:06:15.052Z,95.89
2022-09-23T02:08:52.300Z,96.19
2022-09-23T02:11:19.103Z,96.03
2022-09-23T02:13:45.611Z,96.13
2022-09-23T02:16:16.372Z,96.26
2022-09-23T02:18:49.081Z,96.19
2022-09-23T02:21:17.905Z,96.23
2022-09-23T02:23:59.395Z,96.40
2022-09-23T02:26:49.386Z,96.43
2022-09-23T02:29:21.547Z,96.60
2022-09-23T02:31:51.156Z,96.41
2022-09-23T02:34:17.889Z,96.32
2022-09-23T02:36:56.242Z,96.25
2022-09-23T02:39:24.352Z,96.24
2022-09-23T02:42:02.297Z,96.55
2022-09-23T02:44:29.018Z,96.47
2022-09-23T02:46:57.839Z,96.58
2022-09-23T02:49:29.352Z,96.51
2022-09-23T02:51:56.666Z,96.75
2022-09-23T02:54:25.737Z,96.59
2022-09-23T02:56:53.414Z,96.65
2022-09-23T02:59:21.726Z,96.69
2022-09-23T03:01:52.916Z,96.79
2022-09-23T03:04:38.486Z,96.67
2022-09-23T03:07:10.784Z,96.81
2022-09-23T03:09:43.241Z,96.75
2022-09-23T03:12:16.427Z,96.91
2022-09-23T03:14:49.561Z,96.86
2022-09-23T03:17:25.861Z,96.97
2022-09-23T03:19:56.722Z,96.93
2022-09-23T03:22:27.553Z,96.79
2022-09-23T03:24:55.457Z,96.63
2022-09-23T03:27:25.718Z,96.47
2022-09-23T03:29:53.765Z,96.46
2022-09-23T03:32:23.099Z,96.57
2022-09-23T03:34:51.555Z,96.60
2022-09-23T03:37:40.051Z,96.76
2022-09-23T03:40:07.115Z,96.77
2022-09-23T03:42:34.335Z,96.70
2022-09-23T03:45:04.656Z,96.97
2022-09-23T03:47:31.295Z,96.79
2022-09-23T03:49:57.934Z,96.92
2022-09-23T03:52:25.043Z,97.02
2022-09-23T03:54:52.292Z,96.96
2022-09-23T03:57:19.153Z,96.71
2022-09-23T03:59:45.778Z,97.00
2022-09-23T04:02:12.558Z,96.81
2022-09-23T04:04:40.264Z,96.76
2022-09-23T04:07:06.990Z,96.82
2022-09-23T04:09:33.632Z,97.07
2022-09-23T04:12:00.936Z,96.74
2022-09-23T04:14:27.705Z,96.63
2022-09-23T04:16:54.303Z,96.63
2022-09-23T04:19:21.092Z,96.35
2022-09-23T04:21:47.954Z,96.61
2022-09-23T04:24:15.841Z,96.60
2022-09-23T04:26:42.634Z,96.56
2022-09-23T04:29:10.658Z,96.54
2022-09-23T04:31:37.454Z,96.59
2022-09-23T04:34:04.065Z,96.40
2022-09-23T04:36:31.180Z,96.33
2022-09-23T04:38:57.798Z,96.34
2022-09-23T04:41:27.542Z,96.06
2022-09-23T04:43:54.238Z,95.86
2022-09-23T04:46:20.968Z,95.74
2022-09-23T04:48:47.625Z,95.43
2022-09-23T04:51:15.719Z,95.51
2022-09-23T04:53:43.235Z,95.30
2022-09-23T04:56:11.779Z,94.89
2022-09-23T04:58:38.954Z,94.63
2022-09-23T05:01:11.978Z,94.51
2022-09-23T05:03:38.853Z,93.92
2022-09-23T05:06:05.821Z,93.82
2022-09-23T05:08:32.419Z,93.32
2022-09-23T05:10:59.759Z,93.16
2022-09-23T05:13:26.439Z,93.48
2022-09-23T05:15:58.950Z,93.07
2022-09-23T05:18:25.555Z,93.34
2022-09-23T05:20:55.567Z,92.95
2022-09-23T05:23:23.230Z,93.11
2022-09-23T05:25:56.388Z,92.56
2022-09-23T05:28:23.018Z,92.52
2022-09-23T05:30:49.609Z,92.60
2022-09-23T05:33:16.194Z,92.39
2022-09-23T05:35:48.887Z,92.31
2022-09-23T05:38:16.853Z,92.33
2022-09-23T05:40:43.739Z,92.08
2022-09-23T05:43:10.753Z,91.93
2022-09-23T05:45:37.410Z,91.73
2022-09-23T05:48:04.148Z,91.30
2022-09-23T05:50:30.763Z,90.75
2022-09-23T05:52:57.326Z,90.63
2022-09-23T05:55:23.966Z,90.50
2022-09-23T05:57:50.520Z,90.37
2022-09-23T06:00:17.612Z,90.04
2022-09-23T06:02:44.307Z,89.59
2022-09-23T06:05:12.221Z,89.15
2022-09-23T06:07:39.014Z,89.09
2022-09-23T06:10:06.638Z,89.30
2022-09-23T06:12:33.461Z,88.79
2022-09-23T06:15:00.660Z,88.42
2022-09-23T06:17:27.313Z,88.17
2022-09-23T06:19:53.921Z,88.02
2022-09-23T06:22:20.551Z,88.23
2022-09-23T06:24:47.118Z,87.48
2022-09-23T06:27:13.678Z,87.24
2022-09-23T06:29:40.285Z,86.32
2022-09-23T06:32:06.867Z,86.75
2022-09-23T06:34:46.075Z,86.90
2022-09-23T06:37:20.454Z,86.73
2022-09-23T06:39:47.495Z,86.42
2022-09-23T06:42:15.921Z,86.42
2022-09-23T06:44:42.919Z,85.69
2022-09-23T06:47:09.573Z,85.02
2022-09-23T06:49:36.266Z,84.55
2022-09-23T06:52:02.911Z,84.53
2022-09-23T06:54:30.831Z,84.69
2022-09-23T06:56:57.427Z,84.37
2022-09-23T06:59:25.053Z,83.77
2022-09-23T07:01:51.788Z,82.86
2022-09-23T07:04:18.409Z,83.72
2022-09-23T07:06:45.067Z,83.59
2022-09-23T07:09:12.372Z,83.17
2022-09-23T07:11:39.791Z,83.46
2022-09-23T07:14:06.488Z,83.25
2022-09-23T07:16:33.645Z,79.45
2022-09-23T07:19:00.255Z,82.82
2022-09-23T07:21:27.942Z,83.25
2022-09-23T07:23:55.330Z,83.46
2022-09-23T07:26:22.878Z,83.49
2022-09-23T07:28:53.760Z,83.43
2022-09-23T07:31:33.656Z,83.72
2022-09-23T07:34:03.728Z,83.51
2022-09-23T07:36:32.906Z,83.83
2022-09-23T07:39:03.860Z,83.78
2022-09-23T07:41:31.252Z,83.50
2022-09-23T07:44:01.309Z,83.51
2022-09-23T07:46:29.339Z,83.19
2022-09-23T07:48:56.049Z,82.77
2022-09-23T07:51:24.177Z,82.88
2022-09-23T07:53:52.256Z,83.38
2022-09-23T07:56:19.946Z,82.87
2022-09-23T07:59:00.329Z,82.94
2022-09-23T08:01:29.566Z,82.71
2022-09-23T08:04:00.114Z,82.50
2022-09-23T08:06:26.842Z,82.39
2022-09-23T08:08:53.742Z,82.35
2022-09-23T08:11:20.438Z,82.53
2022-09-23T08:13:47.695Z,82.13
2022-09-23T08:16:14.425Z,80.76
2022-09-23T08:18:43.840Z,80.68
2022-09-23T08:21:10.447Z,81.81
2022-09-23T08:23:37.126Z,81.53
2022-09-23T08:26:05.406Z,81.81
2022-09-23T08:28:33.826Z,81.74
2022-09-23T08:31:01.011Z,81.64
2022-09-23T08:33:27.859Z,81.63
2022-09-23T08:35:59.167Z,81.52
2022-09-23T08:38:25.801Z,81.53
2022-09-23T08:40:52.905Z,81.13
2022-09-23T08:43:27.170Z,80.96
2022-09-23T08:45:55.423Z,80.79
2022-09-23T08:48:29.491Z,80.87
2022-09-23T08:51:00.101Z,80.13
2022-09-23T08:53:28.768Z,80.11
2022-09-23T08:55:58.184Z,80.31
2022-09-23T08:58:45.170Z,80.79
2022-09-23T09:01:14.603Z,80.62
2022-09-23T09:04:00.319Z,80.88
2022-09-23T09:06:41.846Z,80.87
2022-09-23T09:09:23.590Z,80.69
2022-09-23T09:11:52.404Z,79.95
2022-09-23T09:14:30.993Z,80.10
2022-09-23T09:17:01.512Z,79.76
2022-09-23T09:19:40.832Z,80.01
2022-09-23T09:22:13.222Z,79.48
2022-09-23T09:24:40.178Z,79.07
2022-09-23T09:27:13.333Z,78.80
2022-09-23T09:29:42.901Z,77.42
2022-09-23T09:32:33.814Z,77.39
2022-09-23T09:35:05.673Z,76.85
2022-09-23T09:37:39.593Z,75.94
2022-09-23T09:40:08.996Z,76.14
2022-09-23T09:42:40.477Z,75.96
2022-09-23T09:45:19.939Z,76.01
2022-09-23T09:48:20.871Z,75.41
2022-09-23T09:50:49.222Z,71.17
2022-09-23T09:53:24.824Z,66.89
2022-09-23T09:56:05.359Z,71.81
2022-09-23T09:58:34.702Z,70.04
2022-09-23T10:01:01.937Z,71.48
2022-09-23T10:03:34.452Z,71.15
2022-09-23T10:06:12.926Z,72.14
2022-09-23T10:08:39.641Z,71.98
2022-09-23T10:11:16.442Z,72.21
2022-09-23T10:14:01.511Z,72.11
2022-09-23T10:16:31.825Z,72.16
2022-09-23T10:19:13.224Z,72.44
2022-09-23T10:21:42.373Z,72.67
2022-09-23T10:24:20.683Z,73.00
2022-09-23T10:27:13.642Z,73.34
2022-09-23T10:29:46.496Z,72.16
2022-09-23T10:32:18.635Z,72.65
2022-09-23T10:34:46.777Z,73.12
2022-09-23T10:37:15.494Z,73.23
2022-09-23T10:40:01.070Z,72.58
2022-09-23T10:43:05.202Z,72.25
2022-09-23T10:45:57.177Z,71.43
2022-09-23T10:48:36.187Z,71.58
2022-09-23T10:51:14.549Z,69.65
2022-09-23T10:53:42.117Z,70.05
2022-09-23T10:56:21.012Z,70.46
2022-09-23T10:58:53.773Z,70.54
2022-09-23T11:01:20.465Z,70.34
2022-09-23T11:03:58.415Z,70.09
2022-09-23T11:06:34.526Z,71.02
2022-09-23T11:09:07.552Z,70.35
2022-09-23T11:11:37.320Z,70.50
2022-09-23T11:14:07.013Z,69.10
2022-09-23T11:16:39.150Z,66.10
2022-09-23T11:19:11.923Z,67.17
2022-09-23T11:21:44.594Z,68.65
2022-09-23T11:24:29.998Z,69.06
2022-09-23T11:27:16.060Z,66.89
2022-09-23T11:30:01.553Z,69.08
2022-09-23T11:32:51.330Z,68.95
2022-09-23T11:35:36.933Z,69.87
2022-09-23T11:38:03.663Z,69.71
2022-09-23T11:40:31.843Z,69.94
2022-09-23T11:43:06.437Z,69.91
2022-09-23T11:45:45.221Z,70.05
2022-09-23T11:48:15.622Z,70.33
2022-09-23T11:50:47.552Z,68.63
2022-09-23T11:53:14.195Z,69.41
2022-09-23T11:55:55.986Z,69.91
2022-09-23T11:58:29.437Z,69.89
2022-09-23T12:01:08.923Z,69.96
2022-09-23T12:03:49.580Z,69.61
2022-09-23T12:06:21.715Z,69.06
2022-09-23T12:08:51.258Z,67.97
2022-09-23T12:11:30.456Z,67.90
2022-09-23T12:14:10.405Z,68.79
2022-09-23T12:16:43.471Z,69.08
2022-09-23T12:19:19.346Z,68.93
2022-09-23T12:22:04.597Z,68.79
2022-09-23T12:24:40.357Z,69.07
2022-09-23T12:27:11.062Z,68.54
2022-09-23T12:29:38.816Z,68.53
2022-09-23T12:32:10.170Z,68.69
2022-09-23T12:34:49.040Z,69.20
2022-09-23T12:37:24.158Z,68.72
2022-09-23T12:39:50.845Z,68.38
2022-09-23T12:42:19.583Z,68.76
2022-09-23T12:44:47.673Z,63.48
2022-09-23T12:47:14.295Z,65.43
2022-09-23T12:49:44.365Z,66.17
2022-09-23T12:52:10.950Z,65.93
2022-09-23T12:54:38.618Z,65.68
2022-09-23T12:57:34.474Z,65.76
2022-09-23T13:00:22.583Z,66.47
2022-09-23T13:03:12.199Z,66.33
2022-09-23T13:06:01.564Z,66.92
2022-09-23T13:08:29.009Z,65.47
2022-09-23T13:11:01.138Z,62.86
2022-09-23T13:13:45.546Z,65.33
2022-09-23T13:16:12.158Z,66.23
2022-09-23T13:18:55.669Z,66.62
2022-09-23T13:21:40.918Z,67.12
2022-09-23T13:24:13.473Z,67.20
2022-09-23T13:26:44.898Z,67.28
2022-09-23T13:29:17.067Z,67.41
2022-09-23T13:31:45.511Z,66.74
2022-09-23T13:34:15.522Z,67.25
2022-09-23T13:36:46.412Z,65.46
2022-09-23T13:39:13.979Z,66.44
2022-09-23T13:41:42.289Z,66.90
2022-09-23T13:44:13.255Z,67.07
2022-09-23T13:46:45.880Z,66.74
2022-09-23T13:49:26.749Z,67.97
2022-09-23T13:51:54.253Z,68.56
2022-09-23T13:54:28.966Z,68.13
2022-09-23T13:56:56.699Z,68.63
2022-09-23T13:59:30.962Z,68.60
2022-09-23T14:02:17.994Z,68.76
2022-09-23T14:04:44.666Z,69.16
2022-09-23T14:07:13.249Z,68.92
2022-09-23T14:09:44.934Z,68.88
2022-09-23T14:12:12.368Z,69.03
2022-09-23T14:14:40.675Z,69.50
2022-09-23T14:17:08.451Z,69.66
2022-09-23T14:19:36.017Z,69.62
2022-09-23T14:22:03.029Z,69.89
2022-09-23T14:24:29.585Z,69.93
2022-09-23T14:26:56.214Z,70.27
2022-09-23T14:29:28.900Z,70.77
2022-09-23T14:31:57.318Z,70.92
2022-09-23T14:34:42.982Z,70.86
2022-09-23T14:37:34.059Z,71.17
2022-09-23T14:40:01.030Z,71.46
2022-09-23T14:42:39.127Z,71.76
2022-09-23T14:45:06.281Z,72.45
2022-09-23T14:47:34.542Z,72.63
2022-09-23T14:50:19.489Z,72.63
2022-09-23T14:52:52.118Z,72.79
2022-09-23T14:55:18.823Z,73.02
2022-09-23T14:57:45.899Z,73.10
2022-09-23T15:00:13.075Z,73.49
2022-09-23T15:02:42.447Z,73.61
2022-09-23T15:05:14.716Z,73.72
2022-09-23T15:07:41.875Z,73.81
2022-09-23T15:10:13.297Z,73.99
2022-09-23T15:12:40.380Z,74.39
2022-09-23T15:15:12.298Z,74.63
2022-09-23T15:17:39.426Z,74.98
2022-09-23T15:20:17.507Z,74.80
2022-09-23T15:22:45.166Z,74.85
2022-09-23T15:25:22.557Z,75.12
2022-09-23T15:27:59.836Z,75.34
2022-09-23T15:30:26.443Z,75.67
2022-09-23T15:32:53.726Z,75.95
2022-09-23T15:35:21.714Z,76.23
2022-09-23T15:37:49.983Z,76.93
2022-09-23T15:40:27.287Z,76.33
2022-09-23T15:42:56.195Z,76.33
2022-09-23T15:45:30.730Z,76.33
2022-09-23T15:48:02.208Z,76.59
2022-09-23T15:50:29.529Z,77.24
2022-09-23T15:52:56.153Z,77.31
2022-09-23T15:55:23.656Z,77.33
2022-09-23T15:57:50.564Z,77.58
2022-09-23T16:00:17.395Z,77.95
2022-09-23T16:02:45.450Z,77.93
2022-09-23T16:05:25.115Z,78.01
2022-09-23T16:07:52.512Z,78.19
2022-09-23T16:10:20.653Z,78.98
2022-09-23T16:12:47.804Z,78.88
2022-09-23T16:15:16.993Z,78.51
2022-09-23T16:17:45.418Z,78.69
2022-09-23T16:20:13.439Z,78.85
2022-09-23T16:22:40.079Z,79.08
2022-09-23T16:25:09.302Z,79.06
2022-09-23T16:27:35.959Z,79.33
2022-09-23T16:30:02.902Z,79.56
2022-09-23T16:32:30.191Z,79.75
2022-09-23T16:34:58.655Z,80.20
2022-09-23T16:37:25.297Z,80.17
2022-09-23T16:39:52.069Z,80.20
2022-09-23T16:42:18.663Z,80.36
2022-09-23T16:44:45.355Z,80.24
2022-09-23T16:47:11.963Z,80.32
2022-09-23T16:49:38.591Z,80.46
2022-09-23T16:52:05.493Z,80.51
2022-09-23T16:54:32.115Z,80.65
2022-09-23T16:56:59.141Z,80.54
2022-09-23T16:59:45.680Z,80.73
2022-09-23T17:02:30.723Z,80.87
2022-09-23T17:04:57.411Z,80.88
2022-09-23T17:07:24.074Z,80.97
2022-09-23T17:09:50.766Z,81.17
2022-09-23T17:12:22.918Z,81.97
2022-09-23T17:14:49.546Z,81.73
2022-09-23T17:17:16.127Z,82.13
2022-09-23T17:19:42.772Z,82.21
2022-09-23T17:22:10.065Z,83.11
2022-09-23T17:24:36.754Z,82.66
2022-09-23T17:27:03.539Z,82.72
2022-09-23T17:29:30.614Z,84.36
2022-09-23T17:31:58.150Z,83.89
2022-09-23T17:34:25.220Z,84.82
2022-09-23T17:36:51.828Z,85.07
2022-09-23T17:39:18.581Z,84.93
2022-09-23T17:41:45.590Z,85.56
2022-09-23T17:44:12.308Z,84.84
2022-09-23T17:46:38.922Z,84.88
2022-09-23T17:49:06.875Z,84.49
2022-09-23T17:51:33.640Z,84.78
2022-09-23T17:54:00.240Z,84.96
2022-09-23T17:56:26.965Z,87.20
2022-09-23T17:58:53.833Z,85.88
2022-09-23T18:01:22.417Z,85.93
2022-09-23T18:03:53.000Z,85.70
2022-09-23T18:06:20.732Z,85.66
2022-09-23T18:08:48.889Z,85.67
2022-09-23T18:11:22.162Z,85.38
2022-09-23T18:13:50.099Z,85.72
2022-09-23T18:16:17.187Z,86.09
2022-09-23T18:18:44.740Z,86.66
2022-09-23T18:21:11.440Z,86.47
2022-09-23T18:23:38.144Z,86.71
2022-09-23T18:26:04.888Z,86.48
2022-09-23T18:28:34.836Z,86.27
2022-09-23T18:31:01.798Z,86.43
2022-09-23T18:33:28.434Z,86.97
2022-09-23T18:35:55.047Z,87.35
2022-09-23T18:38:21.750Z,86.81
2022-09-23T18:40:54.361Z,87.34
2022-09-23T18:43:24.578Z,88.49
2022-09-23T18:46:18.854Z,87.75
2022-09-23T18:49:04.286Z,87.70
2022-09-23T18:51:32.208Z,87.71
2022-09-23T18:54:00.453Z,87.87
2022-09-23T18:56:37.162Z,87.78
2022-09-23T18:59:07.840Z,88.01
2022-09-23T19:01:34.698Z,89.07
2022-09-23T19:04:04.602Z,89.07
2022-09-23T19:06:32.685Z,89.05
2022-09-23T19:08:59.405Z,89.76
2022-09-23T19:11:26.793Z,90.44
2022-09-23T19:13:57.542Z,89.92
2022-09-23T19:16:26.730Z,89.83
2022-09-23T19:18:53.694Z,90.26
2022-09-23T19:21:21.590Z,90.53
2022-09-23T19:23:49.791Z,90.64
2022-09-23T19:26:17.777Z,92.18
2022-09-23T19:28:50.450Z,91.13
2022-09-23T19:31:18.819Z,91.11
2022-09-23T19:33:53.178Z,91.35
2022-09-23T19:36:23.126Z,92.27
2022-09-23T19:38:52.643Z,91.62
2022-09-23T19:41:20.146Z,91.39
2022-09-23T19:43:48.961Z,92.75
2022-09-23T19:46:16.111Z,94.11
2022-09-23T19:48:43.046Z,93.18
2022-09-23T19:51:09.813Z,94.23
2022-09-23T19:53:36.454Z,94.82
2022-09-23T19:56:06.272Z,93.66
2022-09-23T19:58:33.194Z,93.65
2022-09-23T20:00:59.826Z,93.34
2022-09-23T20:03:27.167Z,93.35
2022-09-23T20:05:57.058Z,93.52
2022-09-23T20:08:24.278Z,93.67
2022-09-23T20:10:50.951Z,94.36
2022-09-23T20:13:17.657Z,93.89
2022-09-23T20:15:45.246Z,93.97
2022-09-23T20:18:11.914Z,94.07
2022-09-23T20:20:38.503Z,94.38
2022-09-23T20:23:05.210Z,95.20
2022-09-23T20:25:51.796Z,95.51
2022-09-23T20:28:18.525Z,95.10
2022-09-23T20:30:45.167Z,94.71
2022-09-23T20:33:15.188Z,95.00
2022-09-23T20:35:44.060Z,94.62
2022-09-23T20:38:10.643Z,95.35
2022-09-23T20:40:38.601Z,96.10
2022-09-23T20:43:05.364Z,94.83
2022-09-23T20:45:32.086Z,96.45
2022-09-23T20:48:01.344Z,95.76
2022-09-23T20:50:27.963Z,95.25
2022-09-23T20:52:54.560Z,95.81
2022-09-23T20:55:21.221Z,94.88
2022-09-23T20:57:48.692Z,95.14
2022-09-23T21:00:15.631Z,95.70
2022-09-23T21:02:43.502Z,96.18
2022-09-23T21:05:10.595Z,96.17
2022-09-23T21:07:37.690Z,96.00
2022-09-23T21:10:06.955Z,96.34
2022-09-23T21:12:33.593Z,95.48
2022-09-23T21:15:00.269Z,95.83
2022-09-23T21:17:27.034Z,96.15
2022-09-23T21:19:53.609Z,96.47
2022-09-23T21:22:20.217Z,96.89
2022-09-23T21:25:31.557Z,97.07
2022-09-23T21:27:37.248Z,96.66
2022-09-23T21:30:04.472Z,96.57
2022-09-23T21:32:31.295Z,96.45
2022-09-23T21:34:57.877Z,96.81
2022-09-23T21:37:25.564Z,96.79
2022-09-23T21:40:10.696Z,98.29
2022-09-23T21:42:37.366Z,97.25
2022-09-23T21:45:05.205Z,96.72
2022-09-23T21:47:32.467Z,96.95
2022-09-23T21:49:59.125Z,98.52
2022-09-23T21:52:25.693Z,97.16
2022-09-23T21:54:52.303Z,97.52
2022-09-23T21:57:18.874Z,98.23
2022-09-23T21:59:46.342Z,98.38
2022-09-23T22:02:12.925Z,98.66
2022-09-23T22:04:39.770Z,100.00
2022-09-23T22:07:06.394Z,100.00
2022-09-23T22:09:32.949Z,100.00
2022-09-23T22:12:07.693Z,100.00
2022-09-23T22:14:34.715Z,100.00
2022-09-23T22:17:02.953Z,100.00
2022-09-23T22:19:35.658Z,100.00
2022-09-23T22:22:06.023Z,100.00
2022-09-23T22:24:32.700Z,100.00
2022-09-23T22:26:59.324Z,100.00
2022-09-23T22:29:44.711Z,100.00
2022-09-23T22:32:30.134Z,100.00
2022-09-23T22:34:56.883Z,100.00
2022-09-23T22:37:30.610Z,100.00
2022-09-23T22:39:57.224Z,100.00
2022-09-23T22:42:23.946Z,100.00
2022-09-23T22:44:50.858Z,100.00
2022-09-23T22:47:18.187Z,100.00
2022-09-23T22:49:45.861Z,100.00
2022-09-23T22:52:12.521Z,100.00
2022-09-23T22:54:39.149Z,100.00
2022-09-23T22:57:09.223Z,100.00
2022-09-23T22:59:37.382Z,100.00
2022-09-23T23:02:04.236Z,100.00
2022-09-23T23:04:31.145Z,100.00
2022-09-23T23:06:58.815Z,100.00
2022-09-23T23:09:25.693Z,100.00
2022-09-23T23:11:52.358Z,100.00
2022-09-23T23:14:19.258Z,100.00
2022-09-23T23:16:46.387Z,100.00
2022-09-23T23:19:14.651Z,100.00
2022-09-23T23:21:43.484Z,100.00
2022-09-23T23:24:17.259Z,100.00
2022-09-23T23:26:44.010Z,100.00
2022-09-23T23:29:11.849Z,100.00
2022-09-23T23:31:38.826Z,100.00
2022-09-23T23:34:06.111Z,100.00
2022-09-23T23:36:32.881Z,100.00
2022-09-23T23:38:59.516Z,100.00
2022-09-23T23:41:26.152Z,100.00
2022-09-23T23:43:56.607Z,100.00
2022-09-23T23:46:25.531Z,100.00
2022-09-23T23:48:52.783Z,100.00
2022-09-23T23:51:19.809Z,100.00
2022-09-23T23:53:47.539Z,100.00
2022-09-23T23:56:19.169Z,100.00
2022-09-23T23:58:46.191Z,100.00
